Albany, New York
Current Conditions -  °F | °C
As of 3:51 PM on Tuesday 25 Nov 2014 (Local Time) from KALB Reporting Station
Broken Clouds Broken Clouds  
Wind Chill: 50°   Ceiling: 26000
Heat Index: 50°   Visibility: 10mi
Dew Point: 25°   Wind: 12mph
Humidity: 38%   Direction: 250°WSW
Pressure: 29.96"   Gusts: NA
Location:  42.65°N, 73.75°W
Report Text: KALB 252051Z 25010KT 10SM FEW050 FEW200 BKN260 10/M04 A2996 RMK AO2 SLP145 T01001039 53008
Loading
Personal Weather Stations






























Interactive Weather Map New forecast layout! Learn more

10-Day Weather Forecast

Advertisements
Track Severe Weather on mobile